sensor_id;sensor_type;location;lat;lon;timestamp;pressure;altitude;pressure_sealevel;temperature;humidity
69855;BME280;57146;48.140;16.304;2022-09-21T00:01:15;99974.16;;;8.52;83.29
69855;BME280;57146;48.140;16.304;2022-09-21T00:03:43;99963.94;;;8.51;83.39
69855;BME280;57146;48.140;16.304;2022-09-21T00:06:13;99972.84;;;8.50;83.12
69855;BME280;57146;48.140;16.304;2022-09-21T00:08:42;99963.94;;;8.46;83.67
69855;BME280;57146;48.140;16.304;2022-09-21T00:11:14;99974.97;;;8.48;82.70
69855;BME280;57146;48.140;16.304;2022-09-21T00:13:41;99971.56;;;8.47;82.77
69855;BME280;57146;48.140;16.304;2022-09-21T00:16:08;99974.97;;;8.48;82.34
69855;BME280;57146;48.140;16.304;2022-09-21T00:18:35;99972.34;;;8.48;82.46
69855;BME280;57146;48.140;16.304;2022-09-21T00:21:10;99965.00;;;8.45;82.37
69855;BME280;57146;48.140;16.304;2022-09-21T00:23:38;99981.53;;;8.45;82.52
69855;BME280;57146;48.140;16.304;2022-09-21T00:26:12;99978.91;;;8.45;82.33
69855;BME280;57146;48.140;16.304;2022-09-21T00:28:40;99979.19;;;8.44;82.52
69855;BME280;57146;48.140;16.304;2022-09-21T00:31:10;99980.22;;;8.48;82.29
69855;BME280;57146;48.140;16.304;2022-09-21T00:33:38;99988.34;;;8.46;82.20
69855;BME280;57146;48.140;16.304;2022-09-21T00:36:08;99978.09;;;8.50;82.09
69855;BME280;57146;48.140;16.304;2022-09-21T00:38:36;99975.75;;;8.48;81.98
69855;BME280;57146;48.140;16.304;2022-09-21T00:41:04;99979.94;;;8.54;81.76
69855;BME280;57146;48.140;16.304;2022-09-21T00:43:34;99976.50;;;8.59;81.17
69855;BME280;57146;48.140;16.304;2022-09-21T00:46:28;99983.06;;;8.56;81.50
69855;BME280;57146;48.140;16.304;2022-09-21T00:48:56;99982.03;;;8.52;81.81
69855;BME280;57146;48.140;16.304;2022-09-21T00:51:24;99982.06;;;8.47;82.17
69855;BME280;57146;48.140;16.304;2022-09-21T00:53:54;99983.38;;;8.45;82.54
69855;BME280;57146;48.140;16.304;2022-09-21T00:56:23;99980.47;;;8.51;81.79
69855;BME280;57146;48.140;16.304;2022-09-21T00:58:51;99985.97;;;8.55;81.48
69855;BME280;57146;48.140;16.304;2022-09-21T01:01:20;99986.25;;;8.48;81.82
69855;BME280;57146;48.140;16.304;2022-09-21T01:03:49;99984.69;;;8.42;82.25
69855;BME280;57146;48.140;16.304;2022-09-21T01:06:19;99979.69;;;8.46;82.11
69855;BME280;57146;48.140;16.304;2022-09-21T01:08:49;99990.47;;;8.44;82.08
69855;BME280;57146;48.140;16.304;2022-09-21T01:14:21;99988.09;;;8.43;82.00
69855;BME280;57146;48.140;16.304;2022-09-21T01:16:55;99986.00;;;8.45;81.86
69855;BME280;57146;48.140;16.304;2022-09-21T01:25:55;99987.06;;;8.38;82.42
69855;BME280;57146;48.140;16.304;2022-09-21T01:30:57;99984.69;;;8.37;82.71
69855;BME280;57146;48.140;16.304;2022-09-21T01:33:41;99985.72;;;8.36;82.57
69855;BME280;57146;48.140;16.304;2022-09-21T01:36:14;99991.53;;;8.33;82.78
69855;BME280;57146;48.140;16.304;2022-09-21T01:38:52;99987.06;;;8.33;82.32
69855;BME280;57146;48.140;16.304;2022-09-21T01:41:23;99993.34;;;8.32;82.55
69855;BME280;57146;48.140;16.304;2022-09-21T01:43:56;99991.00;;;8.31;82.52
69855;BME280;57146;48.140;16.304;2022-09-21T01:46:28;99996.78;;;8.38;82.66
69855;BME280;57146;48.140;16.304;2022-09-21T01:49:04;99994.41;;;8.36;82.76
69855;BME280;57146;48.140;16.304;2022-09-21T01:51:36;99994.66;;;8.35;82.72
69855;BME280;57146;48.140;16.304;2022-09-21T01:54:10;99996.22;;;8.31;83.08
69855;BME280;57146;48.140;16.304;2022-09-21T01:56:42;99996.75;;;8.28;82.86
69855;BME280;57146;48.140;16.304;2022-09-21T01:59:18;99997.28;;;8.30;82.75
69855;BME280;57146;48.140;16.304;2022-09-21T02:01:59;99988.66;;;8.29;82.47
69855;BME280;57146;48.140;16.304;2022-09-21T02:04:29;99992.06;;;8.30;82.64
69855;BME280;57146;48.140;16.304;2022-09-21T02:06:56;99989.94;;;8.32;82.71
69855;BME280;57146;48.140;16.304;2022-09-21T02:09:24;99989.94;;;8.32;82.47
69855;BME280;57146;48.140;16.304;2022-09-21T02:11:50;99992.03;;;8.35;82.60
69855;BME280;57146;48.140;16.304;2022-09-21T02:14:20;99994.41;;;8.42;81.42
69855;BME280;57146;48.140;16.304;2022-09-21T02:19:35;99991.50;;;8.48;80.61
69855;BME280;57146;48.140;16.304;2022-09-21T02:24:56;99996.75;;;8.48;80.94
69855;BME280;57146;48.140;16.304;2022-09-21T02:41:18;100003.31;;;8.51;80.78
69855;BME280;57146;48.140;16.304;2022-09-21T02:43:57;100012.22;;;8.50;81.09
69855;BME280;57146;48.140;16.304;2022-09-21T02:46:58;100010.66;;;8.49;80.72
69855;BME280;57146;48.140;16.304;2022-09-21T02:49:31;100003.84;;;8.48;80.67
69855;BME280;57146;48.140;16.304;2022-09-21T02:52:03;100015.91;;;8.44;80.93
69855;BME280;57146;48.140;16.304;2022-09-21T02:54:33;100003.84;;;8.43;81.04
69855;BME280;57146;48.140;16.304;2022-09-21T02:57:01;100011.72;;;8.48;80.59
69855;BME280;57146;48.140;16.304;2022-09-21T02:59:28;100011.72;;;8.48;80.77
69855;BME280;57146;48.140;16.304;2022-09-21T03:01:55;100011.44;;;8.49;80.64
69855;BME280;57146;48.140;16.304;2022-09-21T03:04:23;100014.34;;;8.48;81.09
69855;BME280;57146;48.140;16.304;2022-09-21T03:06:50;100018.75;;;8.52;80.14
69855;BME280;57146;48.140;16.304;2022-09-21T03:09:16;100021.13;;;8.49;80.54
69855;BME280;57146;48.140;16.304;2022-09-21T03:11:43;100026.38;;;8.54;79.94
69855;BME280;57146;48.140;16.304;2022-09-21T03:14:10;100025.31;;;8.55;79.60
69855;BME280;57146;48.140;16.304;2022-09-21T03:16:38;100024.28;;;8.56;79.79
69855;BME280;57146;48.140;16.304;2022-09-21T03:19:05;100027.16;;;8.59;80.23
69855;BME280;57146;48.140;16.304;2022-09-21T03:21:32;100027.16;;;8.65;79.45
69855;BME280;57146;48.140;16.304;2022-09-21T03:23:59;100032.41;;;8.65;79.93
69855;BME280;57146;48.140;16.304;2022-09-21T03:26:26;100034.72;;;8.66;79.33
69855;BME280;57146;48.140;16.304;2022-09-21T03:28:52;100036.31;;;8.67;79.35
69855;BME280;57146;48.140;16.304;2022-09-21T03:31:20;100028.94;;;8.74;79.73
69855;BME280;57146;48.140;16.304;2022-09-21T03:33:47;100032.91;;;8.67;79.03
69855;BME280;57146;48.140;16.304;2022-09-21T03:36:14;100025.56;;;8.63;79.55
69855;BME280;57146;48.140;16.304;2022-09-21T03:38:40;100035.25;;;8.68;79.71
69855;BME280;57146;48.140;16.304;2022-09-21T03:41:07;100028.97;;;8.64;79.58
69855;BME280;57146;48.140;16.304;2022-09-21T03:43:34;100035.53;;;8.61;79.99
69855;BME280;57146;48.140;16.304;2022-09-21T03:46:01;100039.22;;;8.66;79.55
69855;BME280;57146;48.140;16.304;2022-09-21T03:48:28;100043.38;;;8.67;79.73
69855;BME280;57146;48.140;16.304;2022-09-21T03:50:56;100041.03;;;8.65;79.82
69855;BME280;57146;48.140;16.304;2022-09-21T03:53:22;100054.69;;;8.62;80.01
69855;BME280;57146;48.140;16.304;2022-09-21T03:55:49;100051.03;;;8.58;79.62
69855;BME280;57146;48.140;16.304;2022-09-21T03:58:16;100054.44;;;8.58;79.95
69855;BME280;57146;48.140;16.304;2022-09-21T04:00:43;100060.75;;;8.57;80.03
69855;BME280;57146;48.140;16.304;2022-09-21T04:03:10;100055.78;;;8.51;80.28
69855;BME280;57146;48.140;16.304;2022-09-21T04:05:37;100057.63;;;8.45;80.69
69855;BME280;57146;48.140;16.304;2022-09-21T04:08:04;100057.13;;;8.43;81.08
69855;BME280;57146;48.140;16.304;2022-09-21T04:10:31;100068.91;;;8.41;81.42
69855;BME280;57146;48.140;16.304;2022-09-21T04:13:02;100070.47;;;8.42;81.00
69855;BME280;57146;48.140;16.304;2022-09-21T04:15:29;100070.22;;;8.38;81.08
69855;BME280;57146;48.140;16.304;2022-09-21T04:17:57;100064.69;;;8.34;81.55
69855;BME280;57146;48.140;16.304;2022-09-21T04:20:24;100068.91;;;8.30;81.58
69855;BME280;57146;48.140;16.304;2022-09-21T04:22:51;100071.78;;;8.29;81.79
69855;BME280;57146;48.140;16.304;2022-09-21T04:25:18;100073.88;;;8.27;82.24
69855;BME280;57146;48.140;16.304;2022-09-21T04:27:45;100080.19;;;8.26;82.24
69855;BME280;57146;48.140;16.304;2022-09-21T04:30:14;100077.81;;;8.24;82.08
69855;BME280;57146;48.140;16.304;2022-09-21T04:32:41;100087.81;;;8.22;82.50
69855;BME280;57146;48.140;16.304;2022-09-21T04:35:11;100090.44;;;8.22;82.68
69855;BME280;57146;48.140;16.304;2022-09-21T04:37:38;100095.66;;;8.22;82.48
69855;BME280;57146;48.140;16.304;2022-09-21T04:40:05;100092.50;;;8.20;82.50
69855;BME280;57146;48.140;16.304;2022-09-21T04:42:32;100094.63;;;8.23;82.75
69855;BME280;57146;48.140;16.304;2022-09-21T04:44:59;100094.59;;;8.28;82.29
69855;BME280;57146;48.140;16.304;2022-09-21T04:47:28;100093.28;;;8.31;82.50
69855;BME280;57146;48.140;16.304;2022-09-21T04:49:55;100093.03;;;8.27;83.27
69855;BME280;57146;48.140;16.304;2022-09-21T04:52:22;100099.06;;;8.23;82.84
69855;BME280;57146;48.140;16.304;2022-09-21T04:54:49;100101.69;;;8.18;83.52
69855;BME280;57146;48.140;16.304;2022-09-21T04:57:16;100102.22;;;8.20;83.71
69855;BME280;57146;48.140;16.304;2022-09-21T04:59:43;100093.56;;;8.19;83.23
69855;BME280;57146;48.140;16.304;2022-09-21T05:02:09;100106.44;;;8.15;83.50
69855;BME280;57146;48.140;16.304;2022-09-21T05:04:36;100098.53;;;8.10;84.11
69855;BME280;57146;48.140;16.304;2022-09-21T05:07:03;100099.84;;;8.13;83.61
69855;BME280;57146;48.140;16.304;2022-09-21T05:09:30;100097.25;;;8.13;83.69
69855;BME280;57146;48.140;16.304;2022-09-21T05:11:57;100100.38;;;8.10;84.03
69855;BME280;57146;48.140;16.304;2022-09-21T05:14:23;100100.91;;;8.07;84.42
69855;BME280;57146;48.140;16.304;2022-09-21T05:16:50;100092.00;;;8.08;84.42
69855;BME280;57146;48.140;16.304;2022-09-21T05:19:17;100098.28;;;8.12;83.92
69855;BME280;57146;48.140;16.304;2022-09-21T05:21:44;100105.09;;;8.13;83.81
69855;BME280;57146;48.140;16.304;2022-09-21T05:24:11;100099.84;;;8.13;83.75
69855;BME280;57146;48.140;16.304;2022-09-21T05:26:37;100104.59;;;8.16;83.01
69855;BME280;57146;48.140;16.304;2022-09-21T05:29:04;100097.25;;;8.23;82.95
69855;BME280;57146;48.140;16.304;2022-09-21T05:31:42;100100.94;;;8.37;84.17
69855;BME280;57146;48.140;16.304;2022-09-21T05:34:26;100099.34;;;8.42;82.43
69855;BME280;57146;48.140;16.304;2022-09-21T05:37:16;100101.97;;;8.42;82.19
69855;BME280;57146;48.140;16.304;2022-09-21T05:39:50;100104.34;;;8.43;82.39
69855;BME280;57146;48.140;16.304;2022-09-21T05:42:17;100111.16;;;8.44;82.38
69855;BME280;57146;48.140;16.304;2022-09-21T05:44:44;100114.03;;;8.48;81.94
69855;BME280;57146;48.140;16.304;2022-09-21T05:58:30;100131.06;;;8.76;80.71
69855;BME280;57146;48.140;16.304;2022-09-21T06:03:45;100123.66;;;8.88;80.70
69855;BME280;57146;48.140;16.304;2022-09-21T06:06:12;100124.97;;;8.91;80.45
69855;BME280;57146;48.140;16.304;2022-09-21T06:08:39;100123.09;;;8.96;80.02
69855;BME280;57146;48.140;16.304;2022-09-21T06:11:06;100124.38;;;9.09;79.66
69855;BME280;57146;48.140;16.304;2022-09-21T06:13:32;100124.34;;;9.14;78.77
69855;BME280;57146;48.140;16.304;2022-09-21T06:16:03;100122.25;;;9.16;78.51
69855;BME280;57146;48.140;16.304;2022-09-21T06:18:30;100135.09;;;9.23;78.24
69855;BME280;57146;48.140;16.304;2022-09-21T06:20:57;100136.66;;;9.24;76.72
69855;BME280;57146;48.140;16.304;2022-09-21T06:23:24;100134.81;;;9.24;76.39
69855;BME280;57146;48.140;16.304;2022-09-21T06:25:51;100136.41;;;9.25;76.66
69855;BME280;57146;48.140;16.304;2022-09-21T06:28:24;100139.56;;;9.22;76.94
69855;BME280;57146;48.140;16.304;2022-09-21T06:30:52;100146.16;;;9.20;76.93
69855;BME280;57146;48.140;16.304;2022-09-21T06:33:20;100152.72;;;9.22;77.06
69855;BME280;57146;48.140;16.304;2022-09-21T06:35:58;100151.38;;;9.25;76.62
69855;BME280;57146;48.140;16.304;2022-09-21T06:38:26;100150.09;;;9.17;76.23
69855;BME280;57146;48.140;16.304;2022-09-21T06:40:54;100150.13;;;9.12;76.58
69855;BME280;57146;48.140;16.304;2022-09-21T06:43:21;100155.63;;;9.10;76.54
69855;BME280;57146;48.140;16.304;2022-09-21T06:45:55;100163.25;;;9.12;77.24
69855;BME280;57146;48.140;16.304;2022-09-21T06:48:23;100170.59;;;9.10;77.36
69855;BME280;57146;48.140;16.304;2022-09-21T06:50:50;100164.56;;;9.15;76.76
69855;BME280;57146;48.140;16.304;2022-09-21T06:53:17;100168.50;;;9.12;77.56
69855;BME280;57146;48.140;16.304;2022-09-21T06:55:44;100163.50;;;9.10;77.38
69855;BME280;57146;48.140;16.304;2022-09-21T06:58:10;100174.28;;;9.09;77.35
69855;BME280;57146;48.140;16.304;2022-09-21T07:00:37;100174.78;;;9.16;77.28
69855;BME280;57146;48.140;16.304;2022-09-21T07:03:04;100171.38;;;9.16;77.60
69855;BME280;57146;48.140;16.304;2022-09-21T07:05:32;100174.78;;;9.16;78.11
69855;BME280;57146;48.140;16.304;2022-09-21T07:07:58;100176.88;;;9.19;78.13
69855;BME280;57146;48.140;16.304;2022-09-21T07:10:27;100176.09;;;9.19;77.03
69855;BME280;57146;48.140;16.304;2022-09-21T07:12:54;100187.63;;;9.18;77.35
69855;BME280;57146;48.140;16.304;2022-09-21T07:15:21;100186.06;;;9.22;77.31
69855;BME280;57146;48.140;16.304;2022-09-21T07:17:48;100181.84;;;9.26;77.41
69855;BME280;57146;48.140;16.304;2022-09-21T07:20:18;100192.09;;;9.27;77.02
69855;BME280;57146;48.140;16.304;2022-09-21T07:22:45;100188.41;;;9.28;76.27
69855;BME280;57146;48.140;16.304;2022-09-21T07:25:12;100186.56;;;9.29;76.18
69855;BME280;57146;48.140;16.304;2022-09-21T07:27:39;100197.31;;;9.38;76.39
69855;BME280;57146;48.140;16.304;2022-09-21T07:30:07;100195.47;;;9.38;75.98
69855;BME280;57146;48.140;16.304;2022-09-21T07:32:58;100193.38;;;9.40;76.04
69855;BME280;57146;48.140;16.304;2022-09-21T07:35:25;100186.78;;;9.43;75.48
69855;BME280;57146;48.140;16.304;2022-09-21T07:37:51;100194.59;;;9.53;75.91
69855;BME280;57146;48.140;16.304;2022-09-21T07:40:18;100189.84;;;9.60;75.31
69855;BME280;57146;48.140;16.304;2022-09-21T07:42:50;100192.41;;;9.75;75.31
69855;BME280;57146;48.140;16.304;2022-09-21T07:45:17;100179.75;;;9.82;75.06
69855;BME280;57146;48.140;16.304;2022-09-21T07:47:46;100188.38;;;9.88;74.94
69855;BME280;57146;48.140;16.304;2022-09-21T07:50:13;100194.97;;;9.91;74.89
69855;BME280;57146;48.140;16.304;2022-09-21T07:52:39;100198.13;;;9.93;74.58
69855;BME280;57146;48.140;16.304;2022-09-21T07:55:06;100193.66;;;9.88;74.54
69855;BME280;57146;48.140;16.304;2022-09-21T07:57:33;100203.38;;;9.88;75.10
69855;BME280;57146;48.140;16.304;2022-09-21T08:00:00;100209.19;;;9.84;73.94
69855;BME280;57146;48.140;16.304;2022-09-21T08:02:37;100202.41;;;9.78;74.41
69855;BME280;57146;48.140;16.304;2022-09-21T08:05:09;100199.25;;;9.76;74.67
69855;BME280;57146;48.140;16.304;2022-09-21T08:07:36;100212.91;;;9.78;74.55
69855;BME280;57146;48.140;16.304;2022-09-21T08:10:03;100203.44;;;9.77;74.91
69855;BME280;57146;48.140;16.304;2022-09-21T08:12:30;100202.91;;;9.80;75.51
69855;BME280;57146;48.140;16.304;2022-09-21T08:14:57;100202.13;;;9.80;76.11
69855;BME280;57146;48.140;16.304;2022-09-21T08:17:23;100204.69;;;9.90;75.49
69855;BME280;57146;48.140;16.304;2022-09-21T08:19:50;100202.97;;;10.10;76.93
69855;BME280;57146;48.140;16.304;2022-09-21T08:22:17;100202.91;;;10.25;76.02
69855;BME280;57146;48.140;16.304;2022-09-21T08:24:43;100209.16;;;10.39;76.84
69855;BME280;57146;48.140;16.304;2022-09-21T08:27:10;100213.25;;;10.50;76.20
69855;BME280;57146;48.140;16.304;2022-09-21T08:29:37;100213.03;;;10.47;74.81
69855;BME280;57146;48.140;16.304;2022-09-21T08:32:04;100211.41;;;10.51;73.20
69855;BME280;57146;48.140;16.304;2022-09-21T08:34:31;100209.72;;;10.65;74.60
69855;BME280;57146;48.140;16.304;2022-09-21T08:36:57;100213.19;;;10.61;74.48
69855;BME280;57146;48.140;16.304;2022-09-21T08:39:24;100204.97;;;10.67;74.73
69855;BME280;57146;48.140;16.304;2022-09-21T08:42:41;100202.22;;;10.77;72.90
69855;BME280;57146;48.140;16.304;2022-09-21T08:45:18;100198.72;;;10.87;73.48
69855;BME280;57146;48.140;16.304;2022-09-21T08:47:57;100202.22;;;10.77;73.45
69855;BME280;57146;48.140;16.304;2022-09-21T08:50:29;100200.84;;;10.85;72.67
69855;BME280;57146;48.140;16.304;2022-09-21T08:53:02;100193.28;;;11.02;74.19
69855;BME280;57146;48.140;16.304;2022-09-21T08:55:30;100204.63;;;11.03;70.92
69855;BME280;57146;48.140;16.304;2022-09-21T08:57:58;100196.38;;;11.10;73.26
69855;BME280;57146;48.140;16.304;2022-09-21T09:00:26;100192.06;;;11.19;71.76
69855;BME280;57146;48.140;16.304;2022-09-21T09:09:49;100183.84;;;11.44;71.13
69855;BME280;57146;48.140;16.304;2022-09-21T09:18:13;100184.38;;;11.46;69.47
69855;BME280;57146;48.140;16.304;2022-09-21T09:20:52;100181.06;;;11.36;68.84
69855;BME280;57146;48.140;16.304;2022-09-21T09:23:35;100181.00;;;11.41;68.86
69855;BME280;57146;48.140;16.304;2022-09-21T09:26:13;100183.25;;;11.53;69.53
69855;BME280;57146;48.140;16.304;2022-09-21T09:28:54;100182.94;;;11.54;68.59
69855;BME280;57146;48.140;16.304;2022-09-21T09:31:33;100177.69;;;11.54;68.31
69855;BME280;57146;48.140;16.304;2022-09-21T09:34:14;100187.00;;;11.65;69.19
69855;BME280;57146;48.140;16.304;2022-09-21T09:36:47;100183.59;;;11.65;68.27
69855;BME280;57146;48.140;16.304;2022-09-21T09:39:27;100180.75;;;11.61;67.38
69855;BME280;57146;48.140;16.304;2022-09-21T09:50:12;100179.56;;;12.10;69.20
69855;BME280;57146;48.140;16.304;2022-09-21T09:52:42;100175.84;;;12.11;66.59
69855;BME280;57146;48.140;16.304;2022-09-21T09:55:22;100173.72;;;12.13;66.62
69855;BME280;57146;48.140;16.304;2022-09-21T09:57:51;100176.56;;;12.17;66.45
69855;BME280;57146;48.140;16.304;2022-09-21T10:00:21;100179.78;;;12.14;65.62
69855;BME280;57146;48.140;16.304;2022-09-21T10:02:53;100172.69;;;12.09;66.82
69855;BME280;57146;48.140;16.304;2022-09-21T10:05:23;100183.25;;;12.09;64.83
69855;BME280;57146;48.140;16.304;2022-09-21T10:07:51;100177.97;;;12.09;65.98
69855;BME280;57146;48.140;16.304;2022-09-21T10:10:34;100173.72;;;12.13;66.72
69855;BME280;57146;48.140;16.304;2022-09-21T10:16:05;100166.13;;;12.26;66.80
69855;BME280;57146;48.140;16.304;2022-09-21T10:21:14;100162.25;;;12.37;64.67
69855;BME280;57146;48.140;16.304;2022-09-21T10:23:49;100156.19;;;12.36;64.61
69855;BME280;57146;48.140;16.304;2022-09-21T10:26:18;100158.31;;;12.34;63.18
69855;BME280;57146;48.140;16.304;2022-09-21T10:28:59;100162.06;;;12.47;64.02
69855;BME280;57146;48.140;16.304;2022-09-21T10:31:29;100161.16;;;12.70;63.15
69855;BME280;57146;48.140;16.304;2022-09-21T10:36:35;100160.38;;;12.70;64.32
69855;BME280;57146;48.140;16.304;2022-09-21T10:39:18;100159.13;;;12.81;64.60
69855;BME280;57146;48.140;16.304;2022-09-21T10:41:51;100163.81;;;12.98;62.30
69855;BME280;57146;48.140;16.304;2022-09-21T10:44:21;100156.75;;;12.93;62.09
69855;BME280;57146;48.140;16.304;2022-09-21T10:46:49;100154.81;;;12.85;60.62
69855;BME280;57146;48.140;16.304;2022-09-21T10:49:26;100145.53;;;12.88;62.06
69855;BME280;57146;48.140;16.304;2022-09-21T10:51:56;100150.38;;;12.94;63.60
69855;BME280;57146;48.140;16.304;2022-09-21T10:54:30;100145.78;;;12.86;63.06
69855;BME280;57146;48.140;16.304;2022-09-21T10:57:02;100155.88;;;12.70;62.94
69855;BME280;57146;48.140;16.304;2022-09-21T10:59:32;100151.84;;;12.59;63.94
69855;BME280;57146;48.140;16.304;2022-09-21T11:02:00;100150.38;;;12.53;64.75
69855;BME280;57146;48.140;16.304;2022-09-21T11:18:06;100160.69;;;12.36;65.79
69855;BME280;57146;48.140;16.304;2022-09-21T11:23:26;100157.63;;;12.29;66.70
69855;BME280;57146;48.140;16.304;2022-09-21T11:26:06;100156.56;;;12.30;65.66
69855;BME280;57146;48.140;16.304;2022-09-21T11:39:53;100135.72;;;12.75;65.95
69855;BME280;57146;48.140;16.304;2022-09-21T11:42:46;100122.91;;;12.82;65.57
69855;BME280;57146;48.140;16.304;2022-09-21T11:45:31;100135.34;;;12.95;65.71
69855;BME280;57146;48.140;16.304;2022-09-21T11:48:13;100136.19;;;13.04;65.87
69855;BME280;57146;48.140;16.304;2022-09-21T11:56:29;100136.91;;;12.96;65.08
69855;BME280;57146;48.140;16.304;2022-09-21T12:02:00;100135.13;;;13.05;64.89
69855;BME280;57146;48.140;16.304;2022-09-21T12:12:56;100123.81;;;13.55;63.50
69855;BME280;57146;48.140;16.304;2022-09-21T12:21:19;100114.56;;;13.30;62.06
69855;BME280;57146;48.140;16.304;2022-09-21T12:23:58;100109.09;;;13.26;62.64
69855;BME280;57146;48.140;16.304;2022-09-21T12:26:43;100117.31;;;13.25;64.31
69855;BME280;57146;48.140;16.304;2022-09-21T12:29:25;100115.66;;;13.29;63.26
69855;BME280;57146;48.140;16.304;2022-09-21T12:32:04;100114.53;;;13.44;64.55
69855;BME280;57146;48.140;16.304;2022-09-21T12:34:46;100115.41;;;13.53;62.58
69855;BME280;57146;48.140;16.304;2022-09-21T12:37:19;100113.03;;;13.51;60.95
69855;BME280;57146;48.140;16.304;2022-09-21T12:39:59;100117.88;;;13.49;60.56
69855;BME280;57146;48.140;16.304;2022-09-21T12:42:40;100111.38;;;13.55;62.20
69855;BME280;57146;48.140;16.304;2022-09-21T12:45:22;100114.63;;;13.52;61.27
69855;BME280;57146;48.140;16.304;2022-09-21T12:48:15;100107.94;;;13.55;62.60
69855;BME280;57146;48.140;16.304;2022-09-21T12:50:53;100093.72;;;13.64;63.18
69855;BME280;57146;48.140;16.304;2022-09-21T12:53:25;100095.94;;;13.71;60.15
69855;BME280;57146;48.140;16.304;2022-09-21T13:09:40;100085.00;;;13.86;60.40
69855;BME280;57146;48.140;16.304;2022-09-21T13:12:08;100088.91;;;13.89;60.51
69855;BME280;57146;48.140;16.304;2022-09-21T13:14:50;100076.63;;;13.93;60.57
69855;BME280;57146;48.140;16.304;2022-09-21T13:17:23;100074.59;;;13.90;59.66
69855;BME280;57146;48.140;16.304;2022-09-21T13:19:58;100078.84;;;14.00;60.56
69855;BME280;57146;48.140;16.304;2022-09-21T13:22:30;100078.28;;;14.11;60.19
69855;BME280;57146;48.140;16.304;2022-09-21T13:25:05;100081.00;;;14.20;58.74
69855;BME280;57146;48.140;16.304;2022-09-21T13:27:59;100073.59;;;14.31;59.68
69855;BME280;57146;48.140;16.304;2022-09-21T13:30:41;100071.75;;;14.40;58.26
69855;BME280;57146;48.140;16.304;2022-09-21T13:38:33;100073.53;;;14.22;58.84
69855;BME280;57146;48.140;16.304;2022-09-21T13:41:25;100074.59;;;14.12;59.15
69855;BME280;57146;48.140;16.304;2022-09-21T13:44:21;100071.75;;;14.09;59.50
69855;BME280;57146;48.140;16.304;2022-09-21T13:47:02;100064.97;;;13.94;57.80
69855;BME280;57146;48.140;16.304;2022-09-21T13:49:39;100078.47;;;13.84;57.61
69855;BME280;57146;48.140;16.304;2022-09-21T13:54:58;100061.25;;;13.73;59.25
69855;BME280;57146;48.140;16.304;2022-09-21T13:57:28;100067.81;;;13.75;60.15
69855;BME280;57146;48.140;16.304;2022-09-21T14:03:05;100057.16;;;13.89;59.61
69855;BME280;57146;48.140;16.304;2022-09-21T14:05:45;100057.66;;;13.91;59.85
69855;BME280;57146;48.140;16.304;2022-09-21T14:10:55;100049.81;;;13.86;59.48
69855;BME280;57146;48.140;16.304;2022-09-21T14:13:37;100048.00;;;13.73;60.33
69855;BME280;57146;48.140;16.304;2022-09-21T14:19:02;100054.81;;;13.65;60.44
69855;BME280;57146;48.140;16.304;2022-09-21T14:21:30;100056.69;;;13.64;59.66
69855;BME280;57146;48.140;16.304;2022-09-21T14:24:20;100054.03;;;13.64;60.36
69855;BME280;57146;48.140;16.304;2022-09-21T14:29:48;100043.75;;;13.63;61.23
69855;BME280;57146;48.140;16.304;2022-09-21T14:32:20;100047.78;;;13.60;61.35
69855;BME280;57146;48.140;16.304;2022-09-21T14:34:51;100046.22;;;13.59;61.65
69855;BME280;57146;48.140;16.304;2022-09-21T14:37:34;100047.66;;;13.65;62.80
69855;BME280;57146;48.140;16.304;2022-09-21T14:40:20;100045.72;;;13.57;61.85
69855;BME280;57146;48.140;16.304;2022-09-21T14:42:49;100052.47;;;13.63;61.90
69855;BME280;57146;48.140;16.304;2022-09-21T14:45:18;100055.59;;;13.65;62.53
69855;BME280;57146;48.140;16.304;2022-09-21T15:07:14;100049.66;;;13.60;63.97
69855;BME280;57146;48.140;16.304;2022-09-21T15:16:10;100055.53;;;13.34;62.32
69855;BME280;57146;48.140;16.304;2022-09-21T15:18:32;100061.41;;;13.31;62.23
69855;BME280;57146;48.140;16.304;2022-09-21T15:21:18;100054.25;;;13.32;62.33
69855;BME280;57146;48.140;16.304;2022-09-21T15:23:46;100053.16;;;13.33;62.85
69855;BME280;57146;48.140;16.304;2022-09-21T15:26:15;100058.63;;;13.36;62.12
69855;BME280;57146;48.140;16.304;2022-09-21T15:28:46;100058.44;;;13.33;62.09
69855;BME280;57146;48.140;16.304;2022-09-21T15:31:35;100047.50;;;13.26;62.63
69855;BME280;57146;48.140;16.304;2022-09-21T15:34:07;100055.53;;;13.21;62.92
69855;BME280;57146;48.140;16.304;2022-09-21T15:36:39;100054.06;;;13.14;63.69
69855;BME280;57146;48.140;16.304;2022-09-21T15:42:15;100055.81;;;13.05;63.73
69855;BME280;57146;48.140;16.304;2022-09-21T15:44:44;100051.75;;;12.99;64.02
69855;BME280;57146;48.140;16.304;2022-09-21T15:47:12;100049.69;;;12.96;64.47
69855;BME280;57146;48.140;16.304;2022-09-21T15:49:40;100046.09;;;12.92;64.69
69855;BME280;57146;48.140;16.304;2022-09-21T15:54:45;100049.78;;;12.91;65.17
69855;BME280;57146;48.140;16.304;2022-09-21T16:00:06;100050.34;;;13.02;64.62
69855;BME280;57146;48.140;16.304;2022-09-21T16:05:50;100062.09;;;13.09;64.05
69855;BME280;57146;48.140;16.304;2022-09-21T16:08:31;100057.59;;;13.10;64.41
69855;BME280;57146;48.140;16.304;2022-09-21T16:14:12;100062.69;;;13.06;64.37
69855;BME280;57146;48.140;16.304;2022-09-21T16:22:41;100058.91;;;12.85;64.40
69855;BME280;57146;48.140;16.304;2022-09-21T16:25:22;100066.34;;;12.83;64.20
69855;BME280;57146;48.140;16.304;2022-09-21T16:27:55;100065.28;;;12.70;64.82
69855;BME280;57146;48.140;16.304;2022-09-21T16:33:40;100066.84;;;12.57;64.99
69855;BME280;57146;48.140;16.304;2022-09-21T16:38:43;100075.25;;;12.45;66.45
69855;BME280;57146;48.140;16.304;2022-09-21T16:41:10;100065.16;;;12.48;66.36